sensor_id;sensor_type;location;lat;lon;timestamp;P1;durP1;ratioP1;P2;durP2;ratioP2
64907;SDS011;51412;52.236;5.188;2022-09-02T00:01:11;3.15;;;2.03;;
64907;SDS011;51412;52.236;5.188;2022-09-02T00:03:41;3.95;;;2.55;;
64907;SDS011;51412;52.236;5.188;2022-09-02T00:06:08;3.45;;;2.28;;
64907;SDS011;51412;52.236;5.188;2022-09-02T00:08:35;4.57;;;2.53;;
64907;SDS011;51412;52.236;5.188;2022-09-02T00:11:03;4.70;;;2.65;;
64907;SDS011;51412;52.236;5.188;2022-09-02T00:13:31;4.15;;;2.55;;
64907;SDS011;51412;52.236;5.188;2022-09-02T00:15:58;3.40;;;2.13;;
64907;SDS011;51412;52.236;5.188;2022-09-02T00:18:24;3.63;;;2.00;;
64907;SDS011;51412;52.236;5.188;2022-09-02T00:20:52;5.22;;;2.28;;
64907;SDS011;51412;52.236;5.188;2022-09-02T00:23:19;2.47;;;2.22;;
64907;SDS011;51412;52.236;5.188;2022-09-02T00:25:46;2.30;;;2.10;;
64907;SDS011;51412;52.236;5.188;2022-09-02T00:28:13;6.97;;;2.55;;
64907;SDS011;51412;52.236;5.188;2022-09-02T00:30:40;3.00;;;2.60;;
64907;SDS011;51412;52.236;5.188;2022-09-02T00:33:07;2.92;;;2.25;;
64907;SDS011;51412;52.236;5.188;2022-09-02T00:35:35;4.68;;;2.42;;
64907;SDS011;51412;52.236;5.188;2022-09-02T00:38:03;2.85;;;2.35;;
64907;SDS011;51412;52.236;5.188;2022-09-02T00:40:31;4.95;;;2.55;;
64907;SDS011;51412;52.236;5.188;2022-09-02T00:42:59;3.75;;;2.40;;
64907;SDS011;51412;52.236;5.188;2022-09-02T00:45:26;4.53;;;2.65;;
64907;SDS011;51412;52.236;5.188;2022-09-02T00:47:52;2.35;;;2.15;;
64907;SDS011;51412;52.236;5.188;2022-09-02T00:50:20;2.53;;;2.15;;
64907;SDS011;51412;52.236;5.188;2022-09-02T00:52:50;4.35;;;2.55;;
64907;SDS011;51412;52.236;5.188;2022-09-02T00:55:23;3.83;;;2.17;;
64907;SDS011;51412;52.236;5.188;2022-09-02T00:57:53;2.40;;;2.20;;
64907;SDS011;51412;52.236;5.188;2022-09-02T01:00:24;4.25;;;2.33;;
64907;SDS011;51412;52.236;5.188;2022-09-02T01:02:53;5.75;;;2.47;;
64907;SDS011;51412;52.236;5.188;2022-09-02T01:05:22;4.28;;;2.50;;
64907;SDS011;51412;52.236;5.188;2022-09-02T01:07:51;3.88;;;2.60;;
64907;SDS011;51412;52.236;5.188;2022-09-02T01:10:20;4.00;;;2.50;;
64907;SDS011;51412;52.236;5.188;2022-09-02T01:12:53;4.15;;;2.20;;
64907;SDS011;51412;52.236;5.188;2022-09-02T01:15:20;3.53;;;2.50;;
64907;SDS011;51412;52.236;5.188;2022-09-02T01:17:47;2.08;;;1.95;;
64907;SDS011;51412;52.236;5.188;2022-09-02T01:20:16;4.40;;;2.22;;
64907;SDS011;51412;52.236;5.188;2022-09-02T01:22:47;2.35;;;2.15;;
64907;SDS011;51412;52.236;5.188;2022-09-02T01:25:15;2.53;;;2.30;;
64907;SDS011;51412;52.236;5.188;2022-09-02T01:27:43;7.82;;;2.53;;
64907;SDS011;51412;52.236;5.188;2022-09-02T01:30:12;5.30;;;2.10;;
64907;SDS011;51412;52.236;5.188;2022-09-02T01:32:41;2.67;;;2.47;;
64907;SDS011;51412;52.236;5.188;2022-09-02T01:35:08;3.67;;;2.60;;
64907;SDS011;51412;52.236;5.188;2022-09-02T01:37:36;5.30;;;2.40;;
64907;SDS011;51412;52.236;5.188;2022-09-02T01:40:04;3.22;;;2.60;;
64907;SDS011;51412;52.236;5.188;2022-09-02T01:42:31;3.33;;;2.20;;
64907;SDS011;51412;52.236;5.188;2022-09-02T01:44:58;5.38;;;2.60;;
64907;SDS011;51412;52.236;5.188;2022-09-02T01:47:25;4.25;;;2.50;;
64907;SDS011;51412;52.236;5.188;2022-09-02T01:49:52;5.35;;;2.75;;
64907;SDS011;51412;52.236;5.188;2022-09-02T01:52:19;4.18;;;2.50;;
64907;SDS011;51412;52.236;5.188;2022-09-02T01:54:47;13.82;;;2.53;;
64907;SDS011;51412;52.236;5.188;2022-09-02T01:57:15;2.47;;;2.28;;
64907;SDS011;51412;52.236;5.188;2022-09-02T01:59:42;4.82;;;2.55;;
64907;SDS011;51412;52.236;5.188;2022-09-02T02:02:10;2.72;;;2.45;;
64907;SDS011;51412;52.236;5.188;2022-09-02T02:04:37;4.20;;;3.00;;
64907;SDS011;51412;52.236;5.188;2022-09-02T02:07:04;3.22;;;2.47;;
64907;SDS011;51412;52.236;5.188;2022-09-02T02:09:31;2.95;;;2.55;;
64907;SDS011;51412;52.236;5.188;2022-09-02T02:11:57;3.72;;;2.40;;
64907;SDS011;51412;52.236;5.188;2022-09-02T02:14:25;4.28;;;2.72;;
64907;SDS011;51412;52.236;5.188;2022-09-02T02:16:52;6.20;;;2.40;;
64907;SDS011;51412;52.236;5.188;2022-09-02T02:19:18;4.65;;;2.30;;
64907;SDS011;51412;52.236;5.188;2022-09-02T02:21:45;6.82;;;2.85;;
64907;SDS011;51412;52.236;5.188;2022-09-02T02:24:11;2.78;;;2.10;;
64907;SDS011;51412;52.236;5.188;2022-09-02T02:26:38;2.53;;;2.33;;
64907;SDS011;51412;52.236;5.188;2022-09-02T02:29:04;8.15;;;2.95;;
64907;SDS011;51412;52.236;5.188;2022-09-02T02:31:33;3.60;;;2.38;;
64907;SDS011;51412;52.236;5.188;2022-09-02T02:33:59;5.32;;;2.67;;
64907;SDS011;51412;52.236;5.188;2022-09-02T02:36:27;7.00;;;2.28;;
64907;SDS011;51412;52.236;5.188;2022-09-02T02:38:53;3.25;;;2.47;;
64907;SDS011;51412;52.236;5.188;2022-09-02T02:41:20;4.35;;;2.78;;
64907;SDS011;51412;52.236;5.188;2022-09-02T02:43:47;2.75;;;2.33;;
64907;SDS011;51412;52.236;5.188;2022-09-02T02:46:14;3.67;;;2.38;;
64907;SDS011;51412;52.236;5.188;2022-09-02T02:48:43;3.38;;;2.30;;
64907;SDS011;51412;52.236;5.188;2022-09-02T02:51:09;5.07;;;2.70;;
64907;SDS011;51412;52.236;5.188;2022-09-02T02:53:36;5.72;;;2.45;;
64907;SDS011;51412;52.236;5.188;2022-09-02T02:56:03;4.45;;;2.45;;
64907;SDS011;51412;52.236;5.188;2022-09-02T02:58:30;5.00;;;2.65;;
64907;SDS011;51412;52.236;5.188;2022-09-02T03:00:57;6.35;;;2.63;;
64907;SDS011;51412;52.236;5.188;2022-09-02T03:03:25;5.90;;;2.55;;
64907;SDS011;51412;52.236;5.188;2022-09-02T03:05:53;5.80;;;2.65;;
64907;SDS011;51412;52.236;5.188;2022-09-02T03:08:20;4.63;;;2.53;;
64907;SDS011;51412;52.236;5.188;2022-09-02T03:10:49;7.40;;;2.80;;
64907;SDS011;51412;52.236;5.188;2022-09-02T03:13:18;4.22;;;2.30;;
64907;SDS011;51412;52.236;5.188;2022-09-02T03:15:46;4.00;;;2.30;;
64907;SDS011;51412;52.236;5.188;2022-09-02T03:18:13;3.15;;;2.47;;
64907;SDS011;51412;52.236;5.188;2022-09-02T03:20:40;4.07;;;2.75;;
64907;SDS011;51412;52.236;5.188;2022-09-02T03:23:09;4.05;;;2.30;;
64907;SDS011;51412;52.236;5.188;2022-09-02T03:25:37;2.83;;;1.92;;
64907;SDS011;51412;52.236;5.188;2022-09-02T03:28:06;2.70;;;2.05;;
64907;SDS011;51412;52.236;5.188;2022-09-02T03:30:33;5.32;;;3.00;;
64907;SDS011;51412;52.236;5.188;2022-09-02T03:33:00;3.13;;;2.65;;
64907;SDS011;51412;52.236;5.188;2022-09-02T03:35:29;2.83;;;2.45;;
64907;SDS011;51412;52.236;5.188;2022-09-02T03:37:55;2.80;;;2.30;;
64907;SDS011;51412;52.236;5.188;2022-09-02T03:40:24;3.65;;;2.65;;
64907;SDS011;51412;52.236;5.188;2022-09-02T03:42:52;3.05;;;2.42;;
64907;SDS011;51412;52.236;5.188;2022-09-02T03:45:20;2.92;;;2.60;;
64907;SDS011;51412;52.236;5.188;2022-09-02T03:47:48;2.33;;;2.10;;
64907;SDS011;51412;52.236;5.188;2022-09-02T03:50:18;2.90;;;2.45;;
64907;SDS011;51412;52.236;5.188;2022-09-02T03:52:45;4.13;;;2.60;;
64907;SDS011;51412;52.236;5.188;2022-09-02T03:55:12;2.55;;;2.25;;
64907;SDS011;51412;52.236;5.188;2022-09-02T03:57:40;3.17;;;2.53;;
64907;SDS011;51412;52.236;5.188;2022-09-02T04:00:07;3.78;;;2.50;;
64907;SDS011;51412;52.236;5.188;2022-09-02T04:02:35;3.15;;;2.38;;
64907;SDS011;51412;52.236;5.188;2022-09-02T04:05:02;4.22;;;2.35;;
64907;SDS011;51412;52.236;5.188;2022-09-02T04:07:28;3.80;;;2.55;;
64907;SDS011;51412;52.236;5.188;2022-09-02T04:09:55;3.03;;;2.38;;
64907;SDS011;51412;52.236;5.188;2022-09-02T04:12:21;2.67;;;2.30;;
64907;SDS011;51412;52.236;5.188;2022-09-02T04:14:49;3.08;;;2.47;;
64907;SDS011;51412;52.236;5.188;2022-09-02T04:17:16;6.13;;;2.70;;
64907;SDS011;51412;52.236;5.188;2022-09-02T04:19:42;2.85;;;2.47;;
64907;SDS011;51412;52.236;5.188;2022-09-02T04:22:09;2.78;;;2.50;;
64907;SDS011;51412;52.236;5.188;2022-09-02T04:24:35;2.53;;;2.20;;
64907;SDS011;51412;52.236;5.188;2022-09-02T04:27:02;3.90;;;2.60;;
64907;SDS011;51412;52.236;5.188;2022-09-02T04:29:29;6.47;;;2.67;;
64907;SDS011;51412;52.236;5.188;2022-09-02T04:31:57;4.07;;;2.28;;
64907;SDS011;51412;52.236;5.188;2022-09-02T04:34:24;3.33;;;2.22;;
64907;SDS011;51412;52.236;5.188;2022-09-02T04:36:50;3.15;;;2.67;;
64907;SDS011;51412;52.236;5.188;2022-09-02T04:39:17;4.32;;;2.88;;
64907;SDS011;51412;52.236;5.188;2022-09-02T04:41:44;3.80;;;2.22;;
64907;SDS011;51412;52.236;5.188;2022-09-02T04:44:11;6.32;;;2.78;;
64907;SDS011;51412;52.236;5.188;2022-09-02T04:46:39;7.72;;;3.05;;
64907;SDS011;51412;52.236;5.188;2022-09-02T04:49:07;4.68;;;2.47;;
64907;SDS011;51412;52.236;5.188;2022-09-02T04:51:34;3.45;;;2.35;;
64907;SDS011;51412;52.236;5.188;2022-09-02T04:54:00;7.35;;;2.45;;
64907;SDS011;51412;52.236;5.188;2022-09-02T04:56:28;5.90;;;2.67;;
64907;SDS011;51412;52.236;5.188;2022-09-02T04:58:55;10.60;;;2.63;;
64907;SDS011;51412;52.236;5.188;2022-09-02T05:01:23;4.30;;;2.50;;
64907;SDS011;51412;52.236;5.188;2022-09-02T05:03:51;5.82;;;2.95;;
64907;SDS011;51412;52.236;5.188;2022-09-02T05:06:20;10.10;;;2.60;;
64907;SDS011;51412;52.236;5.188;2022-09-02T05:08:49;4.90;;;2.40;;
64907;SDS011;51412;52.236;5.188;2022-09-02T05:11:16;7.93;;;2.70;;
64907;SDS011;51412;52.236;5.188;2022-09-02T05:13:44;5.50;;;2.90;;
64907;SDS011;51412;52.236;5.188;2022-09-02T05:16:15;4.97;;;2.22;;
64907;SDS011;51412;52.236;5.188;2022-09-02T05:18:45;4.40;;;2.85;;
64907;SDS011;51412;52.236;5.188;2022-09-02T05:21:12;7.47;;;2.33;;
64907;SDS011;51412;52.236;5.188;2022-09-02T05:23:40;3.60;;;2.50;;
64907;SDS011;51412;52.236;5.188;2022-09-02T05:26:08;6.47;;;2.60;;
64907;SDS011;51412;52.236;5.188;2022-09-02T05:28:36;5.72;;;2.92;;
64907;SDS011;51412;52.236;5.188;2022-09-02T05:31:04;3.17;;;2.40;;
64907;SDS011;51412;52.236;5.188;2022-09-02T05:33:32;2.88;;;2.42;;
64907;SDS011;51412;52.236;5.188;2022-09-02T05:36:01;4.10;;;2.30;;
64907;SDS011;51412;52.236;5.188;2022-09-02T05:38:28;6.57;;;2.40;;
64907;SDS011;51412;52.236;5.188;2022-09-02T05:40:57;4.45;;;2.60;;
64907;SDS011;51412;52.236;5.188;2022-09-02T05:43:24;4.53;;;2.60;;
64907;SDS011;51412;52.236;5.188;2022-09-02T05:45:51;4.40;;;2.47;;
64907;SDS011;51412;52.236;5.188;2022-09-02T05:48:18;3.65;;;2.53;;
64907;SDS011;51412;52.236;5.188;2022-09-02T05:51:03;4.78;;;2.55;;
64907;SDS011;51412;52.236;5.188;2022-09-02T05:53:30;5.28;;;2.70;;
64907;SDS011;51412;52.236;5.188;2022-09-02T05:56:00;6.47;;;2.97;;
64907;SDS011;51412;52.236;5.188;2022-09-02T05:58:28;6.18;;;2.67;;
64907;SDS011;51412;52.236;5.188;2022-09-02T06:00:56;3.95;;;2.55;;
64907;SDS011;51412;52.236;5.188;2022-09-02T06:03:23;4.63;;;2.90;;
64907;SDS011;51412;52.236;5.188;2022-09-02T06:05:53;6.10;;;2.65;;
64907;SDS011;51412;52.236;5.188;2022-09-02T06:08:21;4.78;;;2.45;;
64907;SDS011;51412;52.236;5.188;2022-09-02T06:10:47;3.15;;;2.40;;
64907;SDS011;51412;52.236;5.188;2022-09-02T06:13:16;4.85;;;2.55;;
64907;SDS011;51412;52.236;5.188;2022-09-02T06:15:46;5.00;;;2.65;;
64907;SDS011;51412;52.236;5.188;2022-09-02T06:18:14;4.82;;;2.72;;
64907;SDS011;51412;52.236;5.188;2022-09-02T06:20:41;4.38;;;2.97;;
64907;SDS011;51412;52.236;5.188;2022-09-02T06:23:08;7.05;;;2.92;;
64907;SDS011;51412;52.236;5.188;2022-09-02T06:25:35;6.20;;;2.80;;
64907;SDS011;51412;52.236;5.188;2022-09-02T06:28:03;4.28;;;2.50;;
64907;SDS011;51412;52.236;5.188;2022-09-02T06:30:31;4.90;;;3.00;;
64907;SDS011;51412;52.236;5.188;2022-09-02T06:32:59;5.13;;;2.92;;
64907;SDS011;51412;52.236;5.188;2022-09-02T06:35:28;5.80;;;2.90;;
64907;SDS011;51412;52.236;5.188;2022-09-02T06:37:55;5.80;;;3.00;;
64907;SDS011;51412;52.236;5.188;2022-09-02T06:40:22;4.70;;;2.70;;
64907;SDS011;51412;52.236;5.188;2022-09-02T06:42:49;5.57;;;3.15;;
64907;SDS011;51412;52.236;5.188;2022-09-02T06:45:15;3.78;;;3.03;;
64907;SDS011;51412;52.236;5.188;2022-09-02T06:47:43;5.03;;;3.15;;
64907;SDS011;51412;52.236;5.188;2022-09-02T06:50:11;4.53;;;2.70;;
64907;SDS011;51412;52.236;5.188;2022-09-02T06:52:37;5.05;;;3.08;;
64907;SDS011;51412;52.236;5.188;2022-09-02T06:55:05;11.90;;;3.50;;
64907;SDS011;51412;52.236;5.188;2022-09-02T06:57:32;4.85;;;3.08;;
64907;SDS011;51412;52.236;5.188;2022-09-02T06:59:59;8.20;;;3.22;;
64907;SDS011;51412;52.236;5.188;2022-09-02T07:02:27;5.30;;;2.70;;
64907;SDS011;51412;52.236;5.188;2022-09-02T07:04:55;5.13;;;3.10;;
64907;SDS011;51412;52.236;5.188;2022-09-02T07:07:41;8.90;;;2.85;;
64907;SDS011;51412;52.236;5.188;2022-09-02T07:10:12;7.57;;;3.15;;
64907;SDS011;51412;52.236;5.188;2022-09-02T07:12:39;5.70;;;2.70;;
64907;SDS011;51412;52.236;5.188;2022-09-02T07:15:07;3.63;;;3.00;;
64907;SDS011;51412;52.236;5.188;2022-09-02T07:17:34;3.55;;;2.95;;
64907;SDS011;51412;52.236;5.188;2022-09-02T07:20:02;4.43;;;2.90;;
64907;SDS011;51412;52.236;5.188;2022-09-02T07:22:29;6.38;;;2.70;;
64907;SDS011;51412;52.236;5.188;2022-09-02T07:24:56;4.38;;;2.78;;
64907;SDS011;51412;52.236;5.188;2022-09-02T07:27:23;4.60;;;2.70;;
64907;SDS011;51412;52.236;5.188;2022-09-02T07:29:50;8.13;;;2.72;;
64907;SDS011;51412;52.236;5.188;2022-09-02T07:32:17;3.47;;;2.80;;
64907;SDS011;51412;52.236;5.188;2022-09-02T07:34:45;8.65;;;2.72;;
64907;SDS011;51412;52.236;5.188;2022-09-02T07:37:14;6.28;;;2.63;;
64907;SDS011;51412;52.236;5.188;2022-09-02T07:39:41;6.20;;;3.05;;
64907;SDS011;51412;52.236;5.188;2022-09-02T07:42:08;3.17;;;2.53;;
64907;SDS011;51412;52.236;5.188;2022-09-02T07:44:34;5.55;;;2.70;;
64907;SDS011;51412;52.236;5.188;2022-09-02T07:47:02;7.95;;;2.90;;
64907;SDS011;51412;52.236;5.188;2022-09-02T07:49:29;5.95;;;3.25;;
64907;SDS011;51412;52.236;5.188;2022-09-02T07:51:55;9.57;;;3.13;;
64907;SDS011;51412;52.236;5.188;2022-09-02T07:54:24;6.43;;;2.97;;
64907;SDS011;51412;52.236;5.188;2022-09-02T07:56:51;7.57;;;2.72;;
64907;SDS011;51412;52.236;5.188;2022-09-02T07:59:18;7.60;;;3.00;;
64907;SDS011;51412;52.236;5.188;2022-09-02T08:01:46;4.93;;;2.70;;
64907;SDS011;51412;52.236;5.188;2022-09-02T08:04:13;8.15;;;2.90;;
64907;SDS011;51412;52.236;5.188;2022-09-02T08:06:40;6.05;;;2.97;;
64907;SDS011;51412;52.236;5.188;2022-09-02T08:09:08;6.10;;;2.63;;
64907;SDS011;51412;52.236;5.188;2022-09-02T08:11:36;7.72;;;2.65;;
64907;SDS011;51412;52.236;5.188;2022-09-02T08:14:04;4.75;;;2.80;;
64907;SDS011;51412;52.236;5.188;2022-09-02T08:16:32;5.00;;;2.95;;
64907;SDS011;51412;52.236;5.188;2022-09-02T08:18:59;4.10;;;3.33;;
64907;SDS011;51412;52.236;5.188;2022-09-02T08:21:26;5.80;;;2.80;;
64907;SDS011;51412;52.236;5.188;2022-09-02T08:23:53;4.22;;;2.95;;
64907;SDS011;51412;52.236;5.188;2022-09-02T08:26:21;3.88;;;2.70;;
64907;SDS011;51412;52.236;5.188;2022-09-02T08:28:49;4.60;;;2.78;;
64907;SDS011;51412;52.236;5.188;2022-09-02T08:31:15;7.78;;;3.17;;
64907;SDS011;51412;52.236;5.188;2022-09-02T08:33:42;4.65;;;2.97;;
64907;SDS011;51412;52.236;5.188;2022-09-02T08:36:09;6.15;;;3.30;;
64907;SDS011;51412;52.236;5.188;2022-09-02T08:38:39;7.28;;;2.67;;
64907;SDS011;51412;52.236;5.188;2022-09-02T08:41:10;11.20;;;3.50;;
64907;SDS011;51412;52.236;5.188;2022-09-02T08:43:38;3.67;;;2.67;;
64907;SDS011;51412;52.236;5.188;2022-09-02T08:46:10;9.10;;;3.15;;
64907;SDS011;51412;52.236;5.188;2022-09-02T08:48:41;7.25;;;3.35;;
64907;SDS011;51412;52.236;5.188;2022-09-02T08:51:12;6.13;;;3.13;;
64907;SDS011;51412;52.236;5.188;2022-09-02T08:53:45;8.30;;;3.17;;
64907;SDS011;51412;52.236;5.188;2022-09-02T08:56:15;4.57;;;3.08;;
64907;SDS011;51412;52.236;5.188;2022-09-02T08:58:43;4.78;;;3.08;;
64907;SDS011;51412;52.236;5.188;2022-09-02T09:01:18;7.60;;;3.88;;
64907;SDS011;51412;52.236;5.188;2022-09-02T09:07:01;5.68;;;2.90;;
64907;SDS011;51412;52.236;5.188;2022-09-02T09:09:46;7.10;;;3.10;;
64907;SDS011;51412;52.236;5.188;2022-09-02T09:12:26;7.70;;;2.92;;
64907;SDS011;51412;52.236;5.188;2022-09-02T09:15:17;8.38;;;3.10;;
64907;SDS011;51412;52.236;5.188;2022-09-02T09:17:51;6.35;;;3.42;;
64907;SDS011;51412;52.236;5.188;2022-09-02T09:20:23;5.25;;;3.03;;
64907;SDS011;51412;52.236;5.188;2022-09-02T09:22:54;6.78;;;3.53;;
64907;SDS011;51412;52.236;5.188;2022-09-02T09:25:22;8.88;;;3.58;;
64907;SDS011;51412;52.236;5.188;2022-09-02T09:27:54;8.13;;;3.40;;
64907;SDS011;51412;52.236;5.188;2022-09-02T09:30:20;7.55;;;3.40;;
64907;SDS011;51412;52.236;5.188;2022-09-02T09:32:49;13.43;;;4.00;;
64907;SDS011;51412;52.236;5.188;2022-09-02T09:35:19;9.13;;;3.72;;
64907;SDS011;51412;52.236;5.188;2022-09-02T09:37:46;5.78;;;3.20;;
64907;SDS011;51412;52.236;5.188;2022-09-02T09:40:24;6.97;;;3.20;;
64907;SDS011;51412;52.236;5.188;2022-09-02T09:42:55;7.03;;;3.53;;
64907;SDS011;51412;52.236;5.188;2022-09-02T09:45:27;6.28;;;3.42;;
64907;SDS011;51412;52.236;5.188;2022-09-02T09:48:12;4.45;;;3.63;;
64907;SDS011;51412;52.236;5.188;2022-09-02T09:50:43;8.93;;;3.53;;
64907;SDS011;51412;52.236;5.188;2022-09-02T09:53:13;8.82;;;3.83;;
64907;SDS011;51412;52.236;5.188;2022-09-02T09:55:50;6.63;;;3.38;;
64907;SDS011;51412;52.236;5.188;2022-09-02T09:58:18;7.68;;;3.55;;
64907;SDS011;51412;52.236;5.188;2022-09-02T10:00:47;10.68;;;3.45;;
64907;SDS011;51412;52.236;5.188;2022-09-02T10:03:20;7.47;;;3.60;;
64907;SDS011;51412;52.236;5.188;2022-09-02T10:05:49;7.00;;;3.92;;
64907;SDS011;51412;52.236;5.188;2022-09-02T10:08:19;6.10;;;3.85;;
64907;SDS011;51412;52.236;5.188;2022-09-02T10:10:54;8.00;;;3.65;;
64907;SDS011;51412;52.236;5.188;2022-09-02T10:13:24;6.63;;;3.58;;
64907;SDS011;51412;52.236;5.188;2022-09-02T10:16:03;10.77;;;4.30;;
64907;SDS011;51412;52.236;5.188;2022-09-02T10:18:43;6.50;;;3.88;;
64907;SDS011;51412;52.236;5.188;2022-09-02T10:21:19;8.55;;;4.07;;
64907;SDS011;51412;52.236;5.188;2022-09-02T10:23:56;7.00;;;4.13;;
64907;SDS011;51412;52.236;5.188;2022-09-02T10:26:36;5.68;;;3.50;;
64907;SDS011;51412;52.236;5.188;2022-09-02T10:29:15;15.13;;;4.85;;
64907;SDS011;51412;52.236;5.188;2022-09-02T10:31:58;8.45;;;4.32;;
64907;SDS011;51412;52.236;5.188;2022-09-02T10:34:45;7.65;;;4.38;;
64907;SDS011;51412;52.236;5.188;2022-09-02T10:37:18;7.30;;;3.80;;
64907;SDS011;51412;52.236;5.188;2022-09-02T10:39:52;8.63;;;4.10;;
64907;SDS011;51412;52.236;5.188;2022-09-02T10:42:29;5.63;;;3.38;;
64907;SDS011;51412;52.236;5.188;2022-09-02T10:45:02;7.55;;;4.25;;
64907;SDS011;51412;52.236;5.188;2022-09-02T10:47:39;12.48;;;4.13;;
64907;SDS011;51412;52.236;5.188;2022-09-02T10:50:10;11.20;;;4.03;;
64907;SDS011;51412;52.236;5.188;2022-09-02T10:55:48;6.18;;;4.40;;
64907;SDS011;51412;52.236;5.188;2022-09-02T10:58:23;8.75;;;4.35;;
64907;SDS011;51412;52.236;5.188;2022-09-02T11:01:00;5.60;;;3.55;;
64907;SDS011;51412;52.236;5.188;2022-09-02T11:03:29;7.95;;;3.90;;
64907;SDS011;51412;52.236;5.188;2022-09-02T11:06:06;8.00;;;4.07;;
64907;SDS011;51412;52.236;5.188;2022-09-02T11:08:39;7.00;;;4.05;;
64907;SDS011;51412;52.236;5.188;2022-09-02T11:11:09;10.80;;;4.63;;
64907;SDS011;51412;52.236;5.188;2022-09-02T11:13:46;7.18;;;3.83;;
64907;SDS011;51412;52.236;5.188;2022-09-02T11:16:21;5.45;;;3.75;;
64907;SDS011;51412;52.236;5.188;2022-09-02T11:18:55;6.55;;;4.25;;
64907;SDS011;51412;52.236;5.188;2022-09-02T11:21:33;5.88;;;4.05;;
64907;SDS011;51412;52.236;5.188;2022-09-02T11:24:08;16.38;;;5.22;;
64907;SDS011;51412;52.236;5.188;2022-09-02T11:26:40;5.70;;;3.72;;
64907;SDS011;51412;52.236;5.188;2022-09-02T11:29:16;8.10;;;4.03;;
64907;SDS011;51412;52.236;5.188;2022-09-02T11:31:47;8.10;;;4.55;;
64907;SDS011;51412;52.236;5.188;2022-09-02T11:34:29;10.27;;;3.75;;
64907;SDS011;51412;52.236;5.188;2022-09-02T11:37:02;5.10;;;3.92;;
64907;SDS011;51412;52.236;5.188;2022-09-02T11:39:31;6.32;;;4.43;;
64907;SDS011;51412;52.236;5.188;2022-09-02T11:42:06;8.18;;;4.18;;
64907;SDS011;51412;52.236;5.188;2022-09-02T11:50:52;6.00;;;3.70;;
64907;SDS011;51412;52.236;5.188;2022-09-02T11:53:29;11.55;;;4.13;;
64907;SDS011;51412;52.236;5.188;2022-09-02T11:56:00;7.30;;;4.30;;
64907;SDS011;51412;52.236;5.188;2022-09-02T11:58:30;8.27;;;4.25;;
64907;SDS011;51412;52.236;5.188;2022-09-02T12:01:01;10.48;;;3.88;;
64907;SDS011;51412;52.236;5.188;2022-09-02T12:03:30;4.47;;;3.55;;
64907;SDS011;51412;52.236;5.188;2022-09-02T12:06:04;6.80;;;4.10;;
64907;SDS011;51412;52.236;5.188;2022-09-02T12:11:51;5.75;;;3.88;;
64907;SDS011;51412;52.236;5.188;2022-09-02T12:17:34;8.07;;;4.20;;
64907;SDS011;51412;52.236;5.188;2022-09-02T12:30:00;5.45;;;4.07;;
64907;SDS011;51412;52.236;5.188;2022-09-02T12:35:34;7.85;;;4.03;;
64907;SDS011;51412;52.236;5.188;2022-09-02T12:41:13;6.15;;;3.42;;
64907;SDS011;51412;52.236;5.188;2022-09-02T12:43:51;5.85;;;3.67;;
64907;SDS011;51412;52.236;5.188;2022-09-02T12:46:26;6.95;;;4.05;;
64907;SDS011;51412;52.236;5.188;2022-09-02T12:49:09;18.90;;;4.43;;
64907;SDS011;51412;52.236;5.188;2022-09-02T12:51:52;5.57;;;3.70;;
64907;SDS011;51412;52.236;5.188;2022-09-02T12:54:22;4.72;;;3.95;;
64907;SDS011;51412;52.236;5.188;2022-09-02T12:56:57;4.90;;;4.03;;
64907;SDS011;51412;52.236;5.188;2022-09-02T12:59:26;4.30;;;3.88;;
64907;SDS011;51412;52.236;5.188;2022-09-02T13:05:05;6.55;;;3.95;;
64907;SDS011;51412;52.236;5.188;2022-09-02T13:07:54;10.68;;;3.90;;
64907;SDS011;51412;52.236;5.188;2022-09-02T13:16:32;8.05;;;4.25;;
64907;SDS011;51412;52.236;5.188;2022-09-02T13:22:13;4.85;;;3.67;;
64907;SDS011;51412;52.236;5.188;2022-09-02T13:28:16;5.45;;;3.90;;
64907;SDS011;51412;52.236;5.188;2022-09-02T13:31:03;6.10;;;3.50;;
64907;SDS011;51412;52.236;5.188;2022-09-02T13:33:38;7.95;;;4.38;;
64907;SDS011;51412;52.236;5.188;2022-09-02T13:36:06;4.43;;;4.00;;
64907;SDS011;51412;52.236;5.188;2022-09-02T13:38:33;5.25;;;3.72;;
64907;SDS011;51412;52.236;5.188;2022-09-02T13:41:00;6.63;;;4.28;;
64907;SDS011;51412;52.236;5.188;2022-09-02T13:43:26;5.32;;;4.18;;
64907;SDS011;51412;52.236;5.188;2022-09-02T13:45:53;6.35;;;3.95;;
64907;SDS011;51412;52.236;5.188;2022-09-02T13:48:24;6.05;;;3.95;;
64907;SDS011;51412;52.236;5.188;2022-09-02T13:50:54;9.05;;;4.13;;
64907;SDS011;51412;52.236;5.188;2022-09-02T13:53:23;5.72;;;3.75;;
64907;SDS011;51412;52.236;5.188;2022-09-02T13:55:54;6.70;;;3.60;;
64907;SDS011;51412;52.236;5.188;2022-09-02T13:58:30;7.97;;;4.15;;
64907;SDS011;51412;52.236;5.188;2022-09-02T14:03:45;7.43;;;4.45;;
64907;SDS011;51412;52.236;5.188;2022-09-02T14:06:15;8.30;;;3.67;;
64907;SDS011;51412;52.236;5.188;2022-09-02T14:08:44;7.30;;;3.92;;
64907;SDS011;51412;52.236;5.188;2022-09-02T14:11:13;5.88;;;4.25;;
64907;SDS011;51412;52.236;5.188;2022-09-02T14:13:41;6.65;;;3.83;;
64907;SDS011;51412;52.236;5.188;2022-09-02T14:16:27;4.53;;;3.97;;
64907;SDS011;51412;52.236;5.188;2022-09-02T14:19:07;6.63;;;3.83;;
64907;SDS011;51412;52.236;5.188;2022-09-02T14:21:44;5.43;;;4.22;;
64907;SDS011;51412;52.236;5.188;2022-09-02T14:24:12;5.32;;;4.25;;
64907;SDS011;51412;52.236;5.188;2022-09-02T14:26:44;5.00;;;3.70;;
64907;SDS011;51412;52.236;5.188;2022-09-02T14:29:13;5.05;;;3.80;;
64907;SDS011;51412;52.236;5.188;2022-09-02T14:31:41;5.32;;;3.90;;
64907;SDS011;51412;52.236;5.188;2022-09-02T14:36:59;4.50;;;3.50;;
64907;SDS011;51412;52.236;5.188;2022-09-02T14:39:26;5.35;;;3.70;;
64907;SDS011;51412;52.236;5.188;2022-09-02T14:41:53;4.82;;;3.50;;
64907;SDS011;51412;52.236;5.188;2022-09-02T14:44:22;4.10;;;3.70;;
64907;SDS011;51412;52.236;5.188;2022-09-02T14:46:53;5.00;;;3.42;;
64907;SDS011;51412;52.236;5.188;2022-09-02T14:49:23;5.95;;;3.60;;
64907;SDS011;51412;52.236;5.188;2022-09-02T14:51:52;5.20;;;4.18;;
64907;SDS011;51412;52.236;5.188;2022-09-02T14:57:05;5.45;;;3.78;;
64907;SDS011;51412;52.236;5.188;2022-09-02T14:59:45;4.50;;;3.90;;
64907;SDS011;51412;52.236;5.188;2022-09-02T15:02:19;6.85;;;3.83;;
64907;SDS011;51412;52.236;5.188;2022-09-02T15:04:47;6.28;;;4.50;;
64907;SDS011;51412;52.236;5.188;2022-09-02T15:07:14;5.00;;;3.42;;
64907;SDS011;51412;52.236;5.188;2022-09-02T15:09:41;4.75;;;3.63;;
64907;SDS011;51412;52.236;5.188;2022-09-02T15:12:10;7.47;;;4.10;;
64907;SDS011;51412;52.236;5.188;2022-09-02T15:14:37;5.53;;;3.90;;
64907;SDS011;51412;52.236;5.188;2022-09-02T15:17:06;7.20;;;4.00;;
64907;SDS011;51412;52.236;5.188;2022-09-02T15:19:34;5.97;;;3.67;;
64907;SDS011;51412;52.236;5.188;2022-09-02T15:22:01;7.07;;;3.65;;
64907;SDS011;51412;52.236;5.188;2022-09-02T15:24:27;6.10;;;3.85;;
64907;SDS011;51412;52.236;5.188;2022-09-02T15:26:55;5.90;;;3.80;;
64907;SDS011;51412;52.236;5.188;2022-09-02T15:29:22;4.80;;;3.53;;
64907;SDS011;51412;52.236;5.188;2022-09-02T15:31:49;5.13;;;3.60;;
64907;SDS011;51412;52.236;5.188;2022-09-02T15:34:16;4.57;;;3.63;;
64907;SDS011;51412;52.236;5.188;2022-09-02T15:36:43;5.60;;;3.75;;
64907;SDS011;51412;52.236;5.188;2022-09-02T15:39:09;6.95;;;4.10;;
64907;SDS011;51412;52.236;5.188;2022-09-02T15:41:36;5.78;;;3.72;;
64907;SDS011;51412;52.236;5.188;2022-09-02T15:44:05;7.10;;;3.83;;
64907;SDS011;51412;52.236;5.188;2022-09-02T15:46:33;7.57;;;4.13;;
64907;SDS011;51412;52.236;5.188;2022-09-02T15:49:01;5.07;;;3.67;;
64907;SDS011;51412;52.236;5.188;2022-09-02T15:51:29;5.35;;;3.85;;
64907;SDS011;51412;52.236;5.188;2022-09-02T15:53:56;6.25;;;3.83;;
64907;SDS011;51412;52.236;5.188;2022-09-02T15:56:24;4.55;;;3.70;;
64907;SDS011;51412;52.236;5.188;2022-09-02T15:58:53;6.97;;;4.03;;
64907;SDS011;51412;52.236;5.188;2022-09-02T16:01:24;6.72;;;4.05;;